sensor_id;sensor_type;location;lat;lon;timestamp;P1;durP1;ratioP1;P2;durP2;ratioP2
51448;SDS011;37520;46.570;14.268;2022-07-30T00:05:15;4.95;;;3.60;;
51448;SDS011;37520;46.570;14.268;2022-07-30T00:15:16;6.93;;;4.07;;
51448;SDS011;37520;46.570;14.268;2022-07-30T00:25:18;7.63;;;4.32;;
51448;SDS011;37520;46.570;14.268;2022-07-30T00:35:19;6.90;;;5.00;;
51448;SDS011;37520;46.570;14.268;2022-07-30T00:45:20;6.22;;;4.32;;
51448;SDS011;37520;46.570;14.268;2022-07-30T00:55:22;8.10;;;4.18;;
51448;SDS011;37520;46.570;14.268;2022-07-30T01:05:23;5.43;;;3.85;;
51448;SDS011;37520;46.570;14.268;2022-07-30T01:15:25;9.05;;;4.70;;
51448;SDS011;37520;46.570;14.268;2022-07-30T01:35:32;6.15;;;3.72;;
51448;SDS011;37520;46.570;14.268;2022-07-30T01:45:34;5.68;;;3.30;;
51448;SDS011;37520;46.570;14.268;2022-07-30T01:55:39;6.18;;;3.53;;
51448;SDS011;37520;46.570;14.268;2022-07-30T02:05:44;5.93;;;3.40;;
51448;SDS011;37520;46.570;14.268;2022-07-30T02:16:01;6.05;;;4.03;;
51448;SDS011;37520;46.570;14.268;2022-07-30T02:26:12;7.22;;;3.60;;
51448;SDS011;37520;46.570;14.268;2022-07-30T02:36:26;6.30;;;3.17;;
51448;SDS011;37520;46.570;14.268;2022-07-30T02:46:30;5.15;;;3.20;;
51448;SDS011;37520;46.570;14.268;2022-07-30T02:56:53;5.13;;;3.35;;
51448;SDS011;37520;46.570;14.268;2022-07-30T03:06:57;4.43;;;3.22;;
51448;SDS011;37520;46.570;14.268;2022-07-30T03:17:00;6.80;;;3.42;;
51448;SDS011;37520;46.570;14.268;2022-07-30T03:27:04;5.82;;;3.72;;
51448;SDS011;37520;46.570;14.268;2022-07-30T03:37:06;6.43;;;3.60;;
51448;SDS011;37520;46.570;14.268;2022-07-30T03:47:09;7.97;;;3.75;;
51448;SDS011;37520;46.570;14.268;2022-07-30T03:57:17;8.82;;;3.90;;
51448;SDS011;37520;46.570;14.268;2022-07-30T04:07:21;5.07;;;3.83;;
51448;SDS011;37520;46.570;14.268;2022-07-30T04:27:44;4.95;;;3.30;;
51448;SDS011;37520;46.570;14.268;2022-07-30T04:37:49;4.35;;;2.60;;
51448;SDS011;37520;46.570;14.268;2022-07-30T04:47:50;3.50;;;2.30;;
51448;SDS011;37520;46.570;14.268;2022-07-30T04:58:15;4.57;;;2.20;;
51448;SDS011;37520;46.570;14.268;2022-07-30T05:08:20;3.30;;;1.90;;
51448;SDS011;37520;46.570;14.268;2022-07-30T05:18:23;3.10;;;1.60;;
51448;SDS011;37520;46.570;14.268;2022-07-30T05:28:24;2.75;;;1.70;;
51448;SDS011;37520;46.570;14.268;2022-07-30T05:38:30;4.93;;;1.67;;
51448;SDS011;37520;46.570;14.268;2022-07-30T05:48:57;3.30;;;1.52;;
51448;SDS011;37520;46.570;14.268;2022-07-30T05:58:59;3.78;;;1.33;;
51448;SDS011;37520;46.570;14.268;2022-07-30T06:09:20;2.75;;;1.60;;
51448;SDS011;37520;46.570;14.268;2022-07-30T06:19:25;3.90;;;1.35;;
51448;SDS011;37520;46.570;14.268;2022-07-30T06:29:26;2.50;;;1.35;;
51448;SDS011;37520;46.570;14.268;2022-07-30T06:39:28;2.58;;;1.40;;
51448;SDS011;37520;46.570;14.268;2022-07-30T06:49:35;3.53;;;1.38;;
51448;SDS011;37520;46.570;14.268;2022-07-30T06:59:38;2.75;;;1.30;;
51448;SDS011;37520;46.570;14.268;2022-07-30T07:09:56;3.05;;;1.38;;
51448;SDS011;37520;46.570;14.268;2022-07-30T07:20:33;2.80;;;1.30;;
51448;SDS011;37520;46.570;14.268;2022-07-30T07:30:39;2.55;;;1.10;;
51448;SDS011;37520;46.570;14.268;2022-07-30T07:40:43;2.92;;;1.30;;
51448;SDS011;37520;46.570;14.268;2022-07-30T07:50:46;3.58;;;1.20;;
51448;SDS011;37520;46.570;14.268;2022-07-30T08:01:00;2.42;;;1.10;;
51448;SDS011;37520;46.570;14.268;2022-07-30T08:11:21;3.03;;;1.30;;
51448;SDS011;37520;46.570;14.268;2022-07-30T08:21:58;2.97;;;1.10;;
51448;SDS011;37520;46.570;14.268;2022-07-30T08:32:03;2.28;;;1.20;;
51448;SDS011;37520;46.570;14.268;2022-07-30T08:42:08;2.17;;;1.00;;
51448;SDS011;37520;46.570;14.268;2022-07-30T08:52:14;1.92;;;0.93;;
51448;SDS011;37520;46.570;14.268;2022-07-30T09:02:21;2.95;;;0.82;;
51448;SDS011;37520;46.570;14.268;2022-07-30T09:12:34;2.15;;;0.80;;
51448;SDS011;37520;46.570;14.268;2022-07-30T09:22:40;2.63;;;0.93;;
51448;SDS011;37520;46.570;14.268;2022-07-30T09:33:05;2.67;;;1.00;;
51448;SDS011;37520;46.570;14.268;2022-07-30T09:43:43;2.03;;;0.85;;
51448;SDS011;37520;46.570;14.268;2022-07-30T09:53:54;1.73;;;0.80;;
51448;SDS011;37520;46.570;14.268;2022-07-30T10:03:59;2.00;;;0.70;;
51448;SDS011;37520;46.570;14.268;2022-07-30T10:14:21;2.05;;;1.00;;
51448;SDS011;37520;46.570;14.268;2022-07-30T10:24:24;1.77;;;0.80;;
51448;SDS011;37520;46.570;14.268;2022-07-30T10:34:30;1.45;;;0.75;;
51448;SDS011;37520;46.570;14.268;2022-07-30T10:54:45;2.70;;;0.90;;
51448;SDS011;37520;46.570;14.268;2022-07-30T11:15:19;1.92;;;0.65;;
51448;SDS011;37520;46.570;14.268;2022-07-30T11:35:30;1.50;;;0.63;;
51448;SDS011;37520;46.570;14.268;2022-07-30T11:45:33;1.45;;;0.70;;
51448;SDS011;37520;46.570;14.268;2022-07-30T11:55:36;1.55;;;0.75;;
51448;SDS011;37520;46.570;14.268;2022-07-30T12:05:42;1.40;;;0.60;;
51448;SDS011;37520;46.570;14.268;2022-07-30T12:15:45;0.88;;;0.50;;
51448;SDS011;37520;46.570;14.268;2022-07-30T12:25:48;1.90;;;0.60;;
51448;SDS011;37520;46.570;14.268;2022-07-30T12:35:55;1.40;;;0.70;;
51448;SDS011;37520;46.570;14.268;2022-07-30T12:45:58;2.57;;;0.70;;
51448;SDS011;37520;46.570;14.268;2022-07-30T13:06:30;3.13;;;1.15;;
51448;SDS011;37520;46.570;14.268;2022-07-30T13:16:32;2.38;;;1.00;;
51448;SDS011;37520;46.570;14.268;2022-07-30T13:26:35;1.65;;;0.80;;
51448;SDS011;37520;46.570;14.268;2022-07-30T13:36:37;3.75;;;0.80;;
51448;SDS011;37520;46.570;14.268;2022-07-30T13:46:39;1.77;;;0.80;;
51448;SDS011;37520;46.570;14.268;2022-07-30T13:56:40;1.80;;;0.95;;
51448;SDS011;37520;46.570;14.268;2022-07-30T14:06:45;2.53;;;1.08;;
51448;SDS011;37520;46.570;14.268;2022-07-30T14:16:47;1.92;;;0.68;;
51448;SDS011;37520;46.570;14.268;2022-07-30T14:26:51;2.47;;;0.85;;
51448;SDS011;37520;46.570;14.268;2022-07-30T14:36:52;2.03;;;1.05;;
51448;SDS011;37520;46.570;14.268;2022-07-30T14:46:53;3.42;;;1.00;;
51448;SDS011;37520;46.570;14.268;2022-07-30T14:56:55;2.28;;;0.90;;
51448;SDS011;37520;46.570;14.268;2022-07-30T15:06:57;2.30;;;0.85;;
51448;SDS011;37520;46.570;14.268;2022-07-30T15:16:58;2.20;;;0.90;;
51448;SDS011;37520;46.570;14.268;2022-07-30T15:26:59;1.17;;;0.70;;
51448;SDS011;37520;46.570;14.268;2022-07-30T15:37:01;1.95;;;0.98;;
51448;SDS011;37520;46.570;14.268;2022-07-30T15:47:03;18.33;;;3.78;;
51448;SDS011;37520;46.570;14.268;2022-07-30T15:57:05;1.42;;;0.70;;
51448;SDS011;37520;46.570;14.268;2022-07-30T16:07:07;1.58;;;0.73;;
51448;SDS011;37520;46.570;14.268;2022-07-30T16:17:09;1.38;;;0.80;;
51448;SDS011;37520;46.570;14.268;2022-07-30T16:27:14;2.30;;;1.00;;
51448;SDS011;37520;46.570;14.268;2022-07-30T16:37:16;1.95;;;0.90;;
51448;SDS011;37520;46.570;14.268;2022-07-30T16:47:17;2.53;;;0.90;;
51448;SDS011;37520;46.570;14.268;2022-07-30T16:57:18;2.85;;;1.10;;
51448;SDS011;37520;46.570;14.268;2022-07-30T17:07:19;5.57;;;0.95;;
51448;SDS011;37520;46.570;14.268;2022-07-30T17:17:24;3.25;;;1.30;;
51448;SDS011;37520;46.570;14.268;2022-07-30T17:27:25;2.55;;;1.10;;
51448;SDS011;37520;46.570;14.268;2022-07-30T17:37:30;3.38;;;1.50;;
51448;SDS011;37520;46.570;14.268;2022-07-30T17:47:32;3.20;;;1.05;;
51448;SDS011;37520;46.570;14.268;2022-07-30T17:57:33;3.67;;;1.10;;
51448;SDS011;37520;46.570;14.268;2022-07-30T18:07:35;1.90;;;0.70;;
51448;SDS011;37520;46.570;14.268;2022-07-30T18:17:36;1.67;;;0.60;;
51448;SDS011;37520;46.570;14.268;2022-07-30T18:27:38;1.13;;;0.60;;
51448;SDS011;37520;46.570;14.268;2022-07-30T18:37:43;3.38;;;0.80;;
51448;SDS011;37520;46.570;14.268;2022-07-30T18:47:45;3.00;;;0.70;;
51448;SDS011;37520;46.570;14.268;2022-07-30T18:57:46;0.88;;;0.50;;
51448;SDS011;37520;46.570;14.268;2022-07-30T19:07:48;1.90;;;0.50;;
51448;SDS011;37520;46.570;14.268;2022-07-30T19:17:49;1.08;;;0.40;;
51448;SDS011;37520;46.570;14.268;2022-07-30T19:27:51;1.30;;;0.52;;
51448;SDS011;37520;46.570;14.268;2022-07-30T19:37:53;3.53;;;0.60;;
51448;SDS011;37520;46.570;14.268;2022-07-30T19:47:54;4.57;;;0.80;;
51448;SDS011;37520;46.570;14.268;2022-07-30T19:57:55;1.67;;;0.70;;
51448;SDS011;37520;46.570;14.268;2022-07-30T20:07:56;3.70;;;0.70;;
51448;SDS011;37520;46.570;14.268;2022-07-30T20:17:59;2.35;;;0.80;;
51448;SDS011;37520;46.570;14.268;2022-07-30T20:28:00;1.85;;;0.70;;
51448;SDS011;37520;46.570;14.268;2022-07-30T20:38:01;1.83;;;0.70;;
51448;SDS011;37520;46.570;14.268;2022-07-30T20:48:03;4.10;;;1.52;;
51448;SDS011;37520;46.570;14.268;2022-07-30T20:58:05;4.80;;;1.50;;
51448;SDS011;37520;46.570;14.268;2022-07-30T21:08:08;2.72;;;1.10;;
51448;SDS011;37520;46.570;14.268;2022-07-30T21:18:09;2.72;;;0.88;;
51448;SDS011;37520;46.570;14.268;2022-07-30T21:28:11;3.35;;;1.10;;
51448;SDS011;37520;46.570;14.268;2022-07-30T21:38:12;4.00;;;1.55;;
51448;SDS011;37520;46.570;14.268;2022-07-30T21:48:13;4.05;;;1.30;;
51448;SDS011;37520;46.570;14.268;2022-07-30T21:58:15;5.80;;;1.10;;
51448;SDS011;37520;46.570;14.268;2022-07-30T22:08:17;1.73;;;0.80;;
51448;SDS011;37520;46.570;14.268;2022-07-30T22:18:19;2.17;;;0.88;;
51448;SDS011;37520;46.570;14.268;2022-07-30T22:28:23;2.22;;;0.93;;
51448;SDS011;37520;46.570;14.268;2022-07-30T22:38:24;2.53;;;0.90;;
51448;SDS011;37520;46.570;14.268;2022-07-30T22:48:27;3.60;;;0.90;;
51448;SDS011;37520;46.570;14.268;2022-07-30T22:58:28;3.33;;;1.00;;
51448;SDS011;37520;46.570;14.268;2022-07-30T23:08:29;3.25;;;0.90;;
51448;SDS011;37520;46.570;14.268;2022-07-30T23:18:31;3.88;;;1.00;;
51448;SDS011;37520;46.570;14.268;2022-07-30T23:28:35;2.42;;;1.00;;
51448;SDS011;37520;46.570;14.268;2022-07-30T23:38:37;3.25;;;1.40;;
51448;SDS011;37520;46.570;14.268;2022-07-30T23:48:38;4.68;;;1.80;;
51448;SDS011;37520;46.570;14.268;2022-07-30T23:58:40;2.30;;;1.10;;
